createdAt,value
2023-04-02T00:00:12.491Z,60.29
2023-04-02T00:02:46.219Z,60.37
2023-04-02T00:05:30.325Z,60.45
2023-04-02T00:08:00.361Z,60.47
2023-04-02T00:10:28.467Z,60.45
2023-04-02T00:13:10.526Z,60.46
2023-04-02T00:15:39.339Z,60.42
2023-04-02T00:18:06.674Z,60.60
2023-04-02T00:20:38.641Z,60.60
2023-04-02T00:23:06.756Z,60.59
2023-04-02T00:25:43.066Z,60.79
2023-04-02T00:28:20.469Z,60.81
2023-04-02T00:30:53.224Z,60.90
2023-04-02T00:33:23.509Z,60.86
2023-04-02T00:35:52.820Z,61.01
2023-04-02T00:38:25.016Z,60.98
2023-04-02T00:40:54.712Z,60.87
2023-04-02T00:43:28.658Z,61.01
2023-04-02T00:45:58.892Z,61.10
2023-04-02T00:48:28.454Z,60.99
2023-04-02T00:50:55.547Z,61.23
2023-04-02T00:53:27.412Z,61.32
2023-04-02T00:55:56.126Z,61.35
2023-04-02T00:58:32.551Z,61.51
2023-04-02T01:01:00.314Z,61.29
2023-04-02T01:03:36.955Z,61.40
2023-04-02T01:06:14.328Z,61.49
2023-04-02T01:09:08.341Z,61.49
2023-04-02T01:12:02.376Z,61.38
2023-04-02T01:14:55.777Z,61.48
2023-04-02T01:17:42.976Z,61.70
2023-04-02T01:20:25.493Z,61.68
2023-04-02T01:23:05.916Z,62.07
2023-04-02T01:25:43.349Z,62.09
2023-04-02T01:28:29.524Z,62.33
2023-04-02T01:30:59.679Z,62.55
2023-04-02T01:33:31.346Z,62.34
2023-04-02T01:36:16.434Z,62.46
2023-04-02T01:38:58.084Z,62.30
2023-04-02T01:41:34.330Z,62.62
2023-04-02T01:44:10.393Z,62.58
2023-04-02T01:46:41.472Z,62.53
2023-04-02T01:49:18.362Z,62.56
2023-04-02T01:51:51.769Z,62.78
2023-04-02T01:54:19.825Z,62.80
2023-04-02T01:56:47.820Z,62.78
2023-04-02T01:59:18.797Z,62.77
2023-04-02T02:01:52.018Z,62.80
2023-04-02T02:04:19.478Z,62.68
2023-04-02T02:06:47.473Z,62.75
2023-04-02T02:09:24.231Z,62.95
2023-04-02T02:11:51.862Z,63.02
2023-04-02T02:14:25.721Z,63.23
2023-04-02T02:16:56.678Z,63.41
2023-04-02T02:19:45.818Z,63.50
2023-04-02T02:22:29.474Z,63.42
2023-04-02T02:24:58.724Z,63.74
2023-04-02T02:27:28.229Z,63.76
2023-04-02T02:30:00.504Z,63.83
2023-04-02T02:32:33.152Z,63.92
2023-04-02T02:35:19.273Z,63.79
2023-04-02T02:37:50.809Z,63.86
2023-04-02T02:40:27.495Z,63.81
2023-04-02T02:43:01.746Z,63.85
2023-04-02T02:45:34.117Z,64.05
2023-04-02T02:48:02.650Z,64.78
2023-04-02T02:50:32.711Z,64.73
2023-04-02T02:53:03.561Z,65.06
2023-04-02T02:55:34.507Z,64.71
2023-04-02T02:58:09.724Z,64.80
2023-04-02T03:00:37.840Z,64.92
2023-04-02T03:03:09.626Z,64.90
2023-04-02T03:05:38.368Z,65.17
2023-04-02T03:08:09.154Z,64.99
2023-04-02T03:10:54.170Z,64.87
2023-04-02T03:13:27.768Z,65.25
2023-04-02T03:16:12.697Z,65.18
2023-04-02T03:19:05.941Z,64.98
2023-04-02T03:22:04.837Z,64.87
2023-04-02T03:24:59.763Z,64.51
2023-04-02T03:27:34.127Z,64.81
2023-04-02T03:30:36.958Z,65.05
2023-04-02T03:33:11.395Z,65.24
2023-04-02T03:35:43.106Z,65.23
2023-04-02T03:38:30.329Z,65.34
2023-04-02T03:41:00.112Z,65.43
2023-04-02T03:43:34.393Z,65.06
2023-04-02T03:46:23.302Z,65.69
2023-04-02T03:48:55.879Z,66.42
2023-04-02T03:51:26.639Z,66.24
2023-04-02T03:53:53.891Z,66.46
2023-04-02T03:56:32.273Z,66.08
2023-04-02T03:59:11.942Z,65.87
2023-04-02T04:01:45.231Z,65.71
2023-04-02T04:04:19.007Z,66.21
2023-04-02T04:06:50.384Z,66.22
2023-04-02T04:09:20.204Z,66.22
2023-04-02T04:11:51.735Z,66.05
2023-04-02T04:14:27.776Z,65.96
2023-04-02T04:17:09.696Z,66.14
2023-04-02T04:19:48.482Z,66.30
2023-04-02T04:22:30.561Z,66.11
2023-04-02T04:24:59.042Z,66.30
2023-04-02T04:28:06.029Z,66.03
2023-04-02T04:30:48.031Z,65.77
2023-04-02T04:33:15.379Z,65.73
2023-04-02T04:35:48.897Z,66.15
2023-04-02T04:38:35.811Z,66.56
2023-04-02T04:41:13.257Z,66.28
2023-04-02T04:43:50.045Z,66.22
2023-04-02T04:46:23.071Z,66.33
2023-04-02T04:49:01.433Z,66.23
2023-04-02T04:51:39.521Z,66.22
2023-04-02T04:54:09.714Z,66.14
2023-04-02T04:56:37.556Z,66.83
2023-04-02T04:59:27.421Z,66.08
2023-04-02T05:02:23.370Z,65.98
2023-04-02T05:04:52.320Z,65.94
2023-04-02T05:07:24.981Z,66.09
2023-04-02T05:09:51.979Z,66.08
2023-04-02T05:12:39.701Z,66.02
2023-04-02T05:15:06.676Z,66.11
2023-04-02T05:18:02.920Z,65.83
2023-04-02T05:20:40.465Z,65.61
2023-04-02T05:23:28.327Z,65.78
2023-04-02T05:26:10.776Z,65.64
2023-04-02T05:28:47.856Z,65.60
2023-04-02T05:31:20.006Z,65.38
2023-04-02T05:33:49.168Z,65.35
2023-04-02T05:36:29.262Z,65.10
2023-04-02T05:38:57.629Z,65.16
2023-04-02T05:41:29.010Z,65.15
2023-04-02T05:44:12.765Z,64.99
2023-04-02T05:47:04.983Z,65.06
2023-04-02T05:49:40.284Z,65.01
2023-04-02T05:52:12.764Z,64.96
2023-04-02T05:54:57.671Z,64.86
2023-04-02T05:58:10.391Z,65.14
2023-04-02T06:00:37.967Z,65.03
2023-04-02T06:03:16.915Z,64.90
2023-04-02T06:05:46.206Z,64.78
2023-04-02T06:08:21.193Z,64.77
2023-04-02T06:10:55.309Z,64.73
2023-04-02T06:13:22.189Z,64.83
2023-04-02T06:15:49.225Z,64.97
2023-04-02T06:18:21.986Z,65.13
2023-04-02T06:20:48.917Z,65.03
2023-04-02T06:23:18.609Z,65.20
2023-04-02T06:26:02.167Z,65.02
2023-04-02T06:28:39.329Z,65.06
2023-04-02T06:31:13.267Z,65.14
2023-04-02T06:33:40.110Z,65.02
2023-04-02T06:36:09.298Z,64.99
2023-04-02T06:38:37.216Z,64.88
2023-04-02T06:41:15.623Z,65.03
2023-04-02T06:44:09.386Z,65.01
2023-04-02T06:46:42.584Z,65.01
2023-04-02T06:49:19.599Z,65.13
2023-04-02T06:51:48.483Z,65.18
2023-04-02T06:54:16.968Z,65.08
2023-04-02T06:56:49.473Z,64.97
2023-04-02T06:59:16.913Z,64.92
2023-04-02T07:01:55.071Z,64.92
2023-04-02T07:04:22.563Z,64.89
2023-04-02T07:06:49.444Z,64.80
2023-04-02T07:09:16.367Z,64.72
2023-04-02T07:11:43.172Z,64.49
2023-04-02T07:14:13.961Z,64.45
2023-04-02T07:16:42.684Z,64.27
2023-04-02T07:19:20.448Z,64.22
2023-04-02T07:21:47.414Z,64.26
2023-04-02T07:24:14.514Z,64.23
2023-04-02T07:26:41.902Z,64.17
2023-04-02T07:29:13.619Z,64.22
2023-04-02T07:31:40.937Z,64.24
2023-04-02T07:34:08.582Z,64.17
2023-04-02T07:36:35.988Z,64.32
2023-04-02T07:39:03.454Z,64.37
2023-04-02T07:41:30.223Z,64.27
2023-04-02T07:43:57.259Z,64.33
2023-04-02T07:46:24.641Z,64.34
2023-04-02T07:48:51.490Z,64.36
2023-04-02T07:51:20.200Z,64.39
2023-04-02T07:53:50.402Z,64.17
2023-04-02T07:56:19.719Z,64.14
2023-04-02T07:58:46.974Z,64.05
2023-04-02T08:01:20.986Z,63.89
2023-04-02T08:03:48.086Z,63.73
2023-04-02T08:06:14.975Z,63.57
2023-04-02T08:08:42.503Z,63.47
2023-04-02T08:11:10.098Z,63.26
2023-04-02T08:13:37.472Z,63.08
2023-04-02T08:16:05.800Z,62.90
2023-04-02T08:18:33.256Z,62.77
2023-04-02T08:21:00.446Z,62.61
2023-04-02T08:23:27.724Z,62.56
2023-04-02T08:25:55.253Z,62.38
2023-04-02T08:28:23.010Z,62.23
2023-04-02T08:30:50.144Z,62.06
2023-04-02T08:33:18.145Z,61.94
2023-04-02T08:35:46.737Z,61.70
2023-04-02T08:38:22.508Z,61.51
2023-04-02T08:40:52.403Z,61.35
2023-04-02T08:43:40.843Z,61.22
2023-04-02T08:46:10.759Z,61.22
2023-04-02T08:48:42.583Z,61.10
2023-04-02T08:51:23.430Z,60.90
2023-04-02T08:53:54.025Z,60.75
2023-04-02T08:56:30.697Z,60.70
2023-04-02T08:59:01.871Z,60.56
2023-04-02T09:01:52.270Z,60.28
2023-04-02T09:04:22.012Z,59.95
2023-04-02T09:06:52.625Z,59.76
2023-04-02T09:09:21.581Z,59.79
2023-04-02T09:11:56.892Z,59.69
2023-04-02T09:14:43.997Z,59.65
2023-04-02T09:17:20.989Z,59.43
2023-04-02T09:20:09.762Z,59.47
2023-04-02T09:22:36.517Z,59.29
2023-04-02T09:25:05.483Z,59.09
2023-04-02T09:27:34.884Z,59.08
2023-04-02T09:30:04.813Z,59.40
2023-04-02T09:32:50.124Z,59.61
2023-04-02T09:35:27.043Z,59.64
2023-04-02T09:38:18.202Z,59.47
2023-04-02T09:40:58.970Z,59.49
2023-04-02T09:43:30.021Z,59.67
2023-04-02T09:45:59.389Z,59.77
2023-04-02T09:48:35.988Z,59.81
2023-04-02T09:51:13.719Z,59.81
2023-04-02T09:53:43.701Z,59.87
2023-04-02T09:56:16.673Z,59.87
2023-04-02T09:58:45.622Z,59.89
2023-04-02T10:01:37.385Z,59.92
2023-04-02T10:04:07.233Z,59.96
2023-04-02T10:06:34.989Z,59.86
2023-04-02T10:09:21.825Z,59.83
2023-04-02T10:11:51.130Z,59.86
2023-04-02T10:14:25.684Z,60.00
2023-04-02T10:16:56.617Z,60.13
2023-04-02T10:19:37.687Z,60.43
2023-04-02T10:22:13.194Z,60.43
2023-04-02T10:24:40.100Z,60.42
2023-04-02T10:27:30.063Z,60.54
2023-04-02T10:30:21.207Z,60.73
2023-04-02T10:32:57.344Z,60.96
2023-04-02T10:35:40.119Z,61.24
2023-04-02T10:38:39.778Z,61.46
2023-04-02T10:41:15.566Z,61.82
2023-04-02T10:44:12.721Z,62.04
2023-04-02T10:46:51.976Z,62.40
2023-04-02T10:49:36.897Z,62.63
2023-04-02T10:52:20.067Z,62.74
2023-04-02T10:54:53.609Z,62.95
2023-04-02T10:57:41.277Z,63.19
2023-04-02T11:00:11.438Z,63.16
2023-04-02T11:02:50.195Z,63.09
2023-04-02T11:05:32.186Z,63.37
2023-04-02T11:08:16.675Z,63.25
2023-04-02T11:10:48.263Z,63.47
2023-04-02T11:13:19.538Z,63.89
2023-04-02T11:15:46.420Z,63.67
2023-04-02T11:18:36.156Z,63.73
2023-04-02T11:21:04.956Z,63.81
2023-04-02T11:23:35.173Z,64.03
2023-04-02T11:26:50.560Z,63.98
2023-04-02T11:29:23.670Z,64.37
2023-04-02T11:32:11.849Z,64.59
2023-04-02T11:34:41.782Z,64.23
2023-04-02T11:37:31.395Z,64.27
2023-04-02T11:40:27.258Z,64.26
2023-04-02T11:42:54.769Z,64.57
2023-04-02T11:45:25.052Z,64.64
2023-04-02T11:48:06.641Z,64.74
2023-04-02T11:50:41.884Z,64.52
2023-04-02T11:53:11.822Z,64.66
2023-04-02T11:55:45.992Z,64.85
2023-04-02T11:58:34.612Z,64.83
2023-04-02T12:01:19.850Z,65.01
2023-04-02T12:04:05.681Z,65.10
2023-04-02T12:06:47.365Z,65.01
2023-04-02T12:09:24.002Z,65.04
2023-04-02T12:11:52.761Z,65.03
2023-04-02T12:14:38.303Z,65.09
2023-04-02T12:17:30.215Z,65.26
2023-04-02T12:20:05.717Z,65.46
2023-04-02T12:22:33.822Z,65.15
2023-04-02T12:25:18.368Z,65.20
2023-04-02T12:27:46.603Z,65.36
2023-04-02T12:30:23.827Z,65.58
2023-04-02T12:32:50.877Z,65.64
2023-04-02T12:35:34.430Z,65.59
2023-04-02T12:38:01.581Z,65.50
2023-04-02T12:40:28.999Z,65.45
2023-04-02T12:42:56.471Z,65.59
2023-04-02T12:45:30.429Z,65.56
2023-04-02T12:48:04.861Z,65.49
2023-04-02T12:50:33.826Z,65.55
2023-04-02T12:53:01.452Z,65.53
2023-04-02T12:55:28.476Z,65.53
2023-04-02T12:57:59.989Z,65.62
2023-04-02T13:00:31.403Z,65.65
2023-04-02T13:03:18.698Z,65.65
2023-04-02T13:05:51.582Z,65.48
2023-04-02T13:08:41.365Z,65.66
2023-04-02T13:11:08.738Z,65.68
2023-04-02T13:13:38.441Z,65.67
2023-04-02T13:16:12.734Z,66.10
2023-04-02T13:18:39.711Z,65.92
2023-04-02T13:21:07.549Z,66.07
2023-04-02T13:23:37.565Z,66.10
2023-04-02T13:26:30.488Z,66.15
2023-04-02T13:29:05.193Z,66.12
2023-04-02T13:31:33.720Z,66.12
2023-04-02T13:34:01.241Z,66.23
2023-04-02T13:36:29.474Z,66.14
2023-04-02T13:38:56.872Z,66.31
2023-04-02T13:41:29.854Z,66.29
2023-04-02T13:44:00.607Z,66.50
2023-04-02T13:46:30.578Z,66.22
2023-04-02T13:48:58.630Z,65.85
2023-04-02T13:51:35.998Z,65.27
2023-04-02T13:54:09.875Z,64.92
2023-04-02T13:56:37.876Z,64.80
2023-04-02T13:59:06.232Z,65.14
2023-04-02T14:01:33.539Z,65.17
2023-04-02T14:04:02.085Z,64.94
2023-04-02T14:06:49.397Z,64.65
2023-04-02T14:09:45.607Z,65.24
2023-04-02T14:12:30.676Z,64.93
2023-04-02T14:15:03.549Z,64.98
2023-04-02T14:17:36.792Z,64.90
2023-04-02T14:20:49.195Z,65.02
2023-04-02T14:23:23.876Z,65.18
2023-04-02T14:26:18.634Z,65.39
2023-04-02T14:28:58.195Z,65.20
2023-04-02T14:31:31.688Z,65.23
2023-04-02T14:34:15.946Z,65.35
2023-04-02T14:37:11.314Z,65.25
2023-04-02T14:40:02.140Z,65.11
2023-04-02T14:42:44.174Z,65.32
2023-04-02T14:45:34.084Z,64.95
2023-04-02T14:48:05.459Z,64.82
2023-04-02T14:50:42.647Z,64.57
2023-04-02T14:53:21.031Z,64.76
2023-04-02T14:55:52.635Z,64.56
2023-04-02T14:58:26.008Z,64.72
2023-04-02T15:01:02.274Z,64.44
2023-04-02T15:03:37.016Z,64.72
2023-04-02T15:06:09.810Z,64.52
2023-04-02T15:08:52.346Z,64.57
2023-04-02T15:11:32.494Z,64.62
2023-04-02T15:14:12.542Z,64.24
2023-04-02T15:16:40.139Z,64.03
2023-04-02T15:19:13.153Z,64.00
2023-04-02T15:21:55.907Z,63.90
2023-04-02T15:25:03.996Z,63.74
2023-04-02T15:27:31.837Z,63.48
2023-04-02T15:30:13.161Z,63.50
2023-04-02T15:32:42.323Z,63.26
2023-04-02T15:35:37.795Z,63.18
2023-04-02T15:38:06.474Z,63.25
2023-04-02T15:40:55.788Z,63.34
2023-04-02T15:43:39.806Z,62.50
2023-04-02T15:46:19.449Z,62.46
2023-04-02T15:49:07.459Z,62.33
2023-04-02T15:51:49.832Z,62.35
2023-04-02T15:55:00.762Z,61.90
2023-04-02T15:58:18.825Z,61.98
2023-04-02T16:01:14.168Z,62.06
2023-04-02T16:03:56.619Z,62.20
2023-04-02T16:06:51.667Z,61.88
2023-04-02T16:09:28.298Z,62.00
2023-04-02T16:12:13.159Z,62.05
2023-04-02T16:14:41.818Z,62.29
2023-04-02T16:17:52.921Z,62.37
2023-04-02T16:20:24.076Z,62.49
2023-04-02T16:23:01.157Z,62.64
2023-04-02T16:25:35.698Z,62.72
2023-04-02T16:28:22.344Z,62.80
2023-04-02T16:31:24.029Z,62.99
2023-04-02T16:33:57.873Z,63.06
2023-04-02T16:36:58.999Z,63.27
2023-04-02T16:39:35.734Z,63.22
2023-04-02T16:42:13.121Z,63.13
2023-04-02T16:45:01.859Z,63.39
2023-04-02T16:47:47.718Z,63.50
2023-04-02T16:50:45.546Z,63.53
2023-04-02T16:53:31.797Z,63.61
2023-04-02T16:56:17.531Z,63.78
2023-04-02T16:58:57.102Z,64.11
2023-04-02T17:02:02.462Z,64.05
2023-04-02T17:05:00.364Z,64.09
2023-04-02T17:07:38.641Z,64.38
2023-04-02T17:10:26.618Z,64.42
2023-04-02T17:13:20.788Z,64.41
2023-04-02T17:15:59.106Z,64.44
2023-04-02T17:18:26.626Z,64.21
2023-04-02T17:20:55.196Z,64.23
2023-04-02T17:23:23.925Z,64.13
2023-04-02T17:26:03.248Z,63.79
2023-04-02T17:28:43.040Z,63.66
2023-04-02T17:31:23.393Z,63.54
2023-04-02T17:33:52.570Z,63.51
2023-04-02T17:36:35.151Z,63.09
2023-04-02T17:39:15.110Z,62.79
2023-04-02T17:42:07.304Z,62.50
2023-04-02T17:44:42.715Z,62.31
2023-04-02T17:47:28.417Z,62.04
2023-04-02T17:50:18.112Z,61.89
2023-04-02T17:53:19.511Z,61.58
2023-04-02T17:55:56.114Z,61.52
2023-04-02T17:58:52.413Z,61.29
2023-04-02T18:01:36.401Z,61.32
2023-04-02T18:04:11.006Z,61.25
2023-04-02T18:06:38.320Z,60.84
2023-04-02T18:09:31.449Z,60.72
2023-04-02T18:12:13.735Z,60.87
2023-04-02T18:15:12.640Z,60.53
2023-04-02T18:17:40.383Z,60.48
2023-04-02T18:20:33.391Z,60.42
2023-04-02T18:23:35.256Z,60.47
2023-04-02T18:26:34.064Z,60.25
2023-04-02T18:29:25.320Z,60.49
2023-04-02T18:32:32.223Z,60.52
2023-04-02T18:35:23.348Z,60.45
2023-04-02T18:38:21.736Z,60.14
2023-04-02T18:40:52.387Z,60.34
2023-04-02T18:43:51.705Z,60.29
2023-04-02T18:46:37.657Z,60.03
2023-04-02T18:49:32.926Z,60.36
2023-04-02T18:52:16.256Z,60.28
2023-04-02T18:54:53.290Z,60.22
2023-04-02T18:57:30.662Z,60.39
2023-04-02T19:00:16.606Z,60.42
2023-04-02T19:02:46.862Z,60.33
2023-04-02T19:05:21.282Z,60.21
2023-04-02T19:07:53.022Z,60.33
2023-04-02T19:10:31.102Z,60.22
2023-04-02T19:12:58.892Z,60.86
2023-04-02T19:15:44.610Z,60.56
2023-04-02T19:18:41.774Z,60.58
2023-04-02T19:21:45.745Z,60.59
2023-04-02T19:24:50.854Z,60.68
2023-04-02T19:27:54.152Z,60.71
2023-04-02T19:30:58.430Z,60.95
2023-04-02T19:34:01.054Z,61.07
2023-04-02T19:36:45.711Z,60.77
2023-04-02T19:39:36.547Z,61.00
2023-04-02T19:42:35.194Z,60.95
2023-04-02T19:45:03.650Z,60.58
2023-04-02T19:47:31.929Z,60.30
2023-04-02T19:49:59.188Z,60.35
2023-04-02T19:52:26.783Z,60.35
2023-04-02T19:54:54.635Z,60.17
2023-04-02T19:57:22.433Z,60.07
2023-04-02T19:59:49.526Z,59.98
2023-04-02T20:02:17.575Z,59.78
2023-04-02T20:04:46.263Z,59.25
2023-04-02T20:07:13.836Z,59.22
2023-04-02T20:09:41.883Z,58.93
2023-04-02T20:12:10.075Z,58.96
2023-04-02T20:14:37.317Z,58.96
2023-04-02T20:17:05.207Z,59.17
2023-04-02T20:19:32.719Z,58.62
2023-04-02T20:22:01.863Z,58.45
2023-04-02T20:24:29.378Z,58.46
2023-04-02T20:26:57.014Z,58.39
2023-04-02T20:29:28.272Z,58.24
2023-04-02T20:31:56.175Z,58.79
2023-04-02T20:34:23.771Z,58.17
2023-04-02T20:36:51.324Z,58.20
2023-04-02T20:39:20.323Z,58.18
2023-04-02T20:41:47.791Z,57.87
2023-04-02T20:44:15.190Z,58.01
2023-04-02T20:46:42.374Z,58.04
2023-04-02T20:49:09.420Z,58.00
2023-04-02T20:51:55.155Z,58.33
2023-04-02T20:54:40.843Z,58.27
2023-04-02T20:57:07.832Z,58.15
2023-04-02T20:59:34.639Z,58.32
2023-04-02T21:02:01.385Z,58.20
2023-04-02T21:04:28.344Z,58.48
2023-04-02T21:06:57.222Z,58.32
2023-04-02T21:09:24.359Z,58.41
2023-04-02T21:11:51.181Z,58.50
2023-04-02T21:14:18.867Z,58.30
2023-04-02T21:16:45.778Z,58.51
2023-04-02T21:19:12.534Z,58.54
2023-04-02T21:21:40.497Z,58.56
2023-04-02T21:24:09.163Z,58.51
2023-04-02T21:26:39.030Z,58.36
2023-04-02T21:29:06.282Z,58.22
2023-04-02T21:31:38.555Z,58.34
2023-04-02T21:34:06.627Z,58.79
2023-04-02T21:36:36.048Z,58.51
2023-04-02T21:39:09.594Z,58.82
2023-04-02T21:41:42.542Z,58.90
2023-04-02T21:44:13.058Z,58.92
2023-04-02T21:46:42.525Z,58.65
2023-04-02T21:49:11.676Z,58.92
2023-04-02T21:51:40.285Z,59.10
2023-04-02T21:54:08.005Z,58.99
2023-04-02T21:56:40.005Z,58.94
2023-04-02T21:59:08.201Z,58.77
2023-04-02T22:01:37.761Z,58.54
2023-04-02T22:04:06.880Z,58.33
2023-04-02T22:06:40.773Z,58.49
2023-04-02T22:09:11.062Z,58.46
2023-04-02T22:11:41.530Z,58.63
2023-04-02T22:14:08.381Z,58.29
2023-04-02T22:16:35.746Z,58.14
2023-04-02T22:19:06.169Z,57.98
2023-04-02T22:21:34.152Z,57.76
2023-04-02T22:24:02.656Z,57.66
2023-04-02T22:26:30.475Z,57.60
2023-04-02T22:28:57.885Z,57.61
2023-04-02T22:31:27.686Z,57.64
2023-04-02T22:33:56.521Z,57.54
2023-04-02T22:36:25.496Z,57.43
2023-04-02T22:38:52.365Z,57.44
2023-04-02T22:41:27.649Z,57.33
2023-04-02T22:43:58.438Z,57.13
2023-04-02T22:46:27.121Z,57.33
2023-04-02T22:48:55.928Z,57.14
2023-04-02T22:51:23.959Z,57.23
2023-04-02T22:53:52.979Z,57.20
2023-04-02T22:56:22.890Z,57.01
2023-04-02T22:58:49.864Z,56.99
2023-04-02T23:01:29.418Z,56.83
2023-04-02T23:03:56.416Z,57.07
2023-04-02T23:06:24.489Z,57.16
2023-04-02T23:08:52.109Z,57.08
2023-04-02T23:11:22.349Z,56.91
2023-04-02T23:13:51.353Z,56.72
2023-04-02T23:16:19.417Z,56.99
2023-04-02T23:18:48.214Z,56.85
2023-04-02T23:21:16.445Z,57.08
2023-04-02T23:23:43.542Z,56.70
2023-04-02T23:26:21.220Z,56.61
2023-04-02T23:28:48.878Z,56.59
2023-04-02T23:31:18.624Z,56.63
2023-04-02T23:33:45.487Z,56.62
2023-04-02T23:36:25.505Z,56.52
2023-04-02T23:38:55.512Z,56.60
2023-04-02T23:41:24.700Z,56.84
2023-04-02T23:43:51.877Z,56.59
2023-04-02T23:46:19.302Z,56.65
2023-04-02T23:48:46.824Z,56.69
2023-04-02T23:51:14.294Z,56.98
2023-04-02T23:53:41.290Z,56.79
2023-04-02T23:56:08.092Z,56.85
2023-04-02T23:58:34.960Z,56.89
